createdAt,value
2022-08-01T00:00:04.954Z,1.53
2022-08-01T00:02:32.044Z,1.60
2022-08-01T00:04:58.611Z,1.65
2022-08-01T00:07:24.875Z,1.50
2022-08-01T00:09:51.197Z,1.35
2022-08-01T00:12:17.448Z,1.63
2022-08-01T00:14:43.765Z,1.30
2022-08-01T00:17:10.084Z,1.45
2022-08-01T00:19:36.377Z,1.35
2022-08-01T00:22:02.952Z,1.70
2022-08-01T00:24:29.413Z,1.65
2022-08-01T00:26:55.720Z,1.67
2022-08-01T00:30:09.801Z,1.67
2022-08-01T00:32:08.913Z,1.38
2022-08-01T00:34:35.463Z,1.60
2022-08-01T00:37:01.848Z,1.58
2022-08-01T00:39:28.109Z,1.85
2022-08-01T00:41:59.509Z,1.80
2022-08-01T00:44:26.499Z,1.58
2022-08-01T00:46:52.840Z,1.42
2022-08-01T00:49:19.215Z,1.55
2022-08-01T00:51:45.550Z,1.77
2022-08-01T00:54:11.819Z,1.73
2022-08-01T00:56:39.618Z,2.00
2022-08-01T00:59:06.724Z,2.10
2022-08-01T01:01:39.930Z,1.90
2022-08-01T01:04:19.358Z,2.17
2022-08-01T01:07:04.059Z,1.90
2022-08-01T01:09:30.310Z,2.20
2022-08-01T01:11:56.579Z,2.00
2022-08-01T01:14:28.487Z,2.00
2022-08-01T01:16:55.497Z,1.90
2022-08-01T01:19:24.242Z,2.10
2022-08-01T01:22:03.174Z,2.03
2022-08-01T01:24:45.113Z,1.88
2022-08-01T01:27:44.168Z,2.15
2022-08-01T01:30:11.013Z,2.20
2022-08-01T01:32:40.387Z,2.10
2022-08-01T01:35:08.800Z,2.08
2022-08-01T01:37:35.655Z,2.28
2022-08-01T01:40:03.844Z,2.53
2022-08-01T01:42:31.162Z,2.28
2022-08-01T01:44:58.277Z,2.40
2022-08-01T01:47:25.658Z,2.15
2022-08-01T01:49:53.811Z,2.60
2022-08-01T01:52:20.845Z,2.33
2022-08-01T01:54:48.741Z,2.35
2022-08-01T01:57:16.023Z,2.45
2022-08-01T01:59:42.925Z,2.53
2022-08-01T02:02:10.622Z,2.38
2022-08-01T02:04:38.797Z,2.20
2022-08-01T02:07:06.724Z,2.55
2022-08-01T02:09:34.777Z,2.60
2022-08-01T02:12:08.648Z,2.42
2022-08-01T02:14:38.866Z,2.50
2022-08-01T02:17:05.380Z,2.67
2022-08-01T02:19:32.056Z,2.15
2022-08-01T02:22:10.730Z,2.45
2022-08-01T02:24:37.744Z,2.60
2022-08-01T02:27:08.945Z,2.25
2022-08-01T02:29:40.489Z,2.20
2022-08-01T02:32:08.786Z,2.45
2022-08-01T02:34:36.676Z,2.30
2022-08-01T02:37:03.905Z,2.80
2022-08-01T02:39:31.086Z,2.47
2022-08-01T02:41:58.840Z,2.50
2022-08-01T02:44:28.814Z,2.33
2022-08-01T02:47:03.233Z,2.42
2022-08-01T02:49:32.077Z,2.67
2022-08-01T02:51:59.095Z,2.70
2022-08-01T02:54:26.159Z,2.78
2022-08-01T02:56:52.723Z,2.92
2022-08-01T02:59:22.133Z,2.58
2022-08-01T03:01:48.992Z,2.50
2022-08-01T03:04:15.763Z,2.63
2022-08-01T03:06:44.344Z,2.90
2022-08-01T03:09:12.558Z,2.15
2022-08-01T03:11:40.659Z,2.85
2022-08-01T03:14:07.636Z,3.00
2022-08-01T03:16:34.264Z,2.50
2022-08-01T03:19:02.231Z,2.90
2022-08-01T03:21:28.966Z,3.03
2022-08-01T03:23:58.015Z,2.65
2022-08-01T03:26:27.330Z,3.25
2022-08-01T03:28:56.145Z,3.03
2022-08-01T03:31:22.773Z,3.10
2022-08-01T03:33:49.067Z,2.90
2022-08-01T03:36:16.384Z,3.17
2022-08-01T03:38:43.112Z,3.40
2022-08-01T03:41:22.191Z,3.03
2022-08-01T03:43:59.379Z,3.50
2022-08-01T03:46:46.009Z,3.30
2022-08-01T03:49:15.325Z,3.80
2022-08-01T03:51:41.829Z,3.78
2022-08-01T03:54:09.542Z,3.70
2022-08-01T03:56:37.374Z,3.67
2022-08-01T03:59:04.413Z,4.25
2022-08-01T04:01:32.533Z,4.47
2022-08-01T04:03:59.493Z,4.07
2022-08-01T04:06:25.869Z,4.30
2022-08-01T04:08:58.487Z,4.38
2022-08-01T04:11:25.644Z,3.78
2022-08-01T04:13:52.871Z,4.00
2022-08-01T04:16:19.372Z,4.40
2022-08-01T04:18:45.746Z,4.05
2022-08-01T04:21:12.573Z,4.35
2022-08-01T04:23:40.081Z,3.95
2022-08-01T04:26:06.669Z,3.95
2022-08-01T04:28:35.491Z,4.38
2022-08-01T04:31:02.379Z,4.10
2022-08-01T04:33:30.814Z,4.43
2022-08-01T04:36:01.968Z,4.22
2022-08-01T04:38:31.739Z,4.72
2022-08-01T04:40:58.502Z,4.43
2022-08-01T04:43:25.036Z,4.45
2022-08-01T04:45:51.849Z,4.68
2022-08-01T04:48:20.261Z,5.00
2022-08-01T04:50:49.190Z,5.25
2022-08-01T04:53:17.654Z,5.35
2022-08-01T04:55:44.555Z,4.97
2022-08-01T04:58:15.063Z,5.32
2022-08-01T05:00:44.513Z,5.15
2022-08-01T05:03:10.791Z,5.15
2022-08-01T05:05:37.119Z,5.20
2022-08-01T05:08:03.468Z,5.60
2022-08-01T05:10:29.874Z,4.82
2022-08-01T05:12:56.133Z,5.38
2022-08-01T05:15:22.437Z,5.85
2022-08-01T05:17:48.726Z,5.65
2022-08-01T05:20:15.071Z,5.40
2022-08-01T05:22:41.389Z,5.43
2022-08-01T05:25:07.963Z,6.10
2022-08-01T05:27:39.124Z,5.20
2022-08-01T05:30:05.687Z,6.70
2022-08-01T05:32:32.831Z,6.57
2022-08-01T05:34:59.094Z,6.95
2022-08-01T05:37:25.415Z,7.90
2022-08-01T05:39:51.731Z,7.82
2022-08-01T05:42:17.985Z,7.00
2022-08-01T05:44:44.252Z,6.88
2022-08-01T05:47:10.521Z,7.93
2022-08-01T05:49:36.862Z,7.45
2022-08-01T05:52:03.986Z,9.25
2022-08-01T05:54:30.489Z,8.60
2022-08-01T05:57:00.448Z,8.80
2022-08-01T05:59:27.045Z,9.57
2022-08-01T06:01:53.391Z,9.73
2022-08-01T06:04:19.736Z,9.27
2022-08-01T06:06:46.003Z,9.40
2022-08-01T06:09:12.305Z,9.50
2022-08-01T06:11:38.570Z,9.63
2022-08-01T06:14:04.984Z,9.70
2022-08-01T06:16:31.291Z,8.68
2022-08-01T06:18:57.642Z,8.80
2022-08-01T06:21:23.945Z,8.75
2022-08-01T06:23:50.227Z,8.48
2022-08-01T06:26:19.755Z,9.00
2022-08-01T06:28:45.992Z,8.23
2022-08-01T06:31:14.511Z,9.10
2022-08-01T06:33:40.915Z,8.32
2022-08-01T06:36:07.272Z,8.55
2022-08-01T06:38:33.586Z,8.73
2022-08-01T06:40:59.831Z,8.38
2022-08-01T06:43:26.103Z,8.10
2022-08-01T06:45:52.343Z,7.28
2022-08-01T06:48:18.776Z,8.50
2022-08-01T06:50:45.104Z,8.15
2022-08-01T06:53:11.357Z,8.38
2022-08-01T06:55:37.653Z,7.97
2022-08-01T06:58:03.902Z,8.48
2022-08-01T07:00:30.337Z,8.82
2022-08-01T07:02:57.437Z,8.82
2022-08-01T07:05:23.711Z,8.90
2022-08-01T07:07:50.078Z,9.25
2022-08-01T07:10:16.598Z,8.82
2022-08-01T07:12:43.057Z,8.77
2022-08-01T07:15:09.893Z,9.73
2022-08-01T07:17:39.975Z,9.90
2022-08-01T07:20:07.488Z,10.15
2022-08-01T07:22:37.199Z,10.53
2022-08-01T07:25:04.874Z,9.02
2022-08-01T07:27:31.212Z,9.63
2022-08-01T07:29:57.494Z,10.40
2022-08-01T07:32:23.840Z,9.65
2022-08-01T07:34:50.164Z,9.55
2022-08-01T07:37:16.589Z,10.55
2022-08-01T07:39:42.870Z,9.63
2022-08-01T07:42:09.702Z,9.20
2022-08-01T07:44:36.575Z,9.13
2022-08-01T07:47:03.297Z,9.20
2022-08-01T07:49:30.028Z,9.20
2022-08-01T07:52:03.324Z,8.60
2022-08-01T07:54:33.838Z,8.40
2022-08-01T07:57:00.504Z,8.52
2022-08-01T07:59:26.801Z,8.10
2022-08-01T08:01:53.141Z,8.70
2022-08-01T08:04:19.613Z,7.95
2022-08-01T08:06:48.393Z,8.23
2022-08-01T08:09:15.394Z,7.50
2022-08-01T08:11:47.352Z,7.70
2022-08-01T08:14:14.498Z,7.68
2022-08-01T08:16:40.779Z,7.18
2022-08-01T08:19:07.068Z,7.00
2022-08-01T08:21:33.365Z,7.28
2022-08-01T08:24:18.551Z,7.32
2022-08-01T08:26:44.825Z,7.57
2022-08-01T08:29:11.098Z,7.57
2022-08-01T08:31:52.124Z,7.38
2022-08-01T08:34:19.608Z,7.35
2022-08-01T08:36:47.945Z,7.85
2022-08-01T08:39:14.460Z,7.68
2022-08-01T08:41:41.114Z,7.50
2022-08-01T08:44:10.301Z,6.93
2022-08-01T08:46:47.395Z,7.32
2022-08-01T08:49:16.148Z,6.72
2022-08-01T08:51:42.994Z,6.45
2022-08-01T08:54:11.606Z,6.82
2022-08-01T08:56:38.337Z,6.45
2022-08-01T08:59:04.961Z,6.05
2022-08-01T09:01:33.508Z,6.40
2022-08-01T09:03:59.974Z,6.72
2022-08-01T09:06:26.406Z,6.35
2022-08-01T09:08:53.986Z,5.97
2022-08-01T09:11:22.935Z,6.55
2022-08-01T09:14:09.858Z,6.00
2022-08-01T09:16:36.751Z,5.95
2022-08-01T09:19:40.461Z,6.47
2022-08-01T09:22:04.779Z,6.03
2022-08-01T09:24:31.998Z,6.25
2022-08-01T09:26:59.139Z,7.03
2022-08-01T09:29:37.786Z,6.60
2022-08-01T09:32:06.201Z,6.43
2022-08-01T09:34:33.900Z,6.40
2022-08-01T09:37:01.978Z,6.10
2022-08-01T09:39:29.275Z,6.93
2022-08-01T09:41:56.372Z,5.80
2022-08-01T09:44:42.658Z,5.90
2022-08-01T09:47:10.901Z,5.70
2022-08-01T09:49:51.070Z,5.32
2022-08-01T09:52:26.079Z,5.32
2022-08-01T09:55:00.379Z,5.40
2022-08-01T09:57:27.305Z,5.20
2022-08-01T09:59:59.138Z,5.50
2022-08-01T10:02:31.348Z,5.10
2022-08-01T10:05:03.369Z,5.30
2022-08-01T10:07:43.028Z,5.47
2022-08-01T10:10:14.801Z,5.22
2022-08-01T10:12:45.109Z,5.35
2022-08-01T10:15:12.200Z,5.53
2022-08-01T10:17:50.850Z,5.22
2022-08-01T10:20:30.843Z,5.65
2022-08-01T10:23:06.284Z,5.05
2022-08-01T10:25:41.886Z,5.05
2022-08-01T10:28:21.676Z,5.22
2022-08-01T10:30:50.919Z,5.03
2022-08-01T10:33:49.682Z,5.60
2022-08-01T10:36:08.511Z,5.40
2022-08-01T10:38:35.885Z,5.38
2022-08-01T10:41:06.341Z,5.53
2022-08-01T10:46:02.875Z,4.53
2022-08-01T10:48:39.728Z,4.00
2022-08-01T10:51:18.140Z,5.00
2022-08-01T10:53:49.267Z,4.13
2022-08-01T10:56:18.040Z,4.30
2022-08-01T10:58:45.145Z,4.15
2022-08-01T11:01:20.962Z,4.10
2022-08-01T11:03:59.058Z,4.63
2022-08-01T11:06:33.654Z,4.72
2022-08-01T11:09:01.679Z,4.57
2022-08-01T11:11:29.761Z,4.15
2022-08-01T11:14:12.819Z,4.13
2022-08-01T11:16:40.588Z,4.65
2022-08-01T11:19:07.676Z,4.68
2022-08-01T11:21:57.045Z,3.50
2022-08-01T11:24:44.390Z,3.88
2022-08-01T11:27:23.480Z,3.55
2022-08-01T11:30:08.994Z,3.80
2022-08-01T11:33:10.630Z,3.80
2022-08-01T11:35:36.408Z,3.50
2022-08-01T11:38:21.325Z,3.60
2022-08-01T11:40:47.609Z,3.65
2022-08-01T11:43:13.833Z,3.42
2022-08-01T11:45:55.786Z,3.28
2022-08-01T11:48:27.681Z,3.83
2022-08-01T11:50:55.273Z,3.70
2022-08-01T11:53:21.962Z,3.70
2022-08-01T11:55:52.520Z,3.13
2022-08-01T11:58:29.384Z,3.70
2022-08-01T12:00:58.767Z,3.10
2022-08-01T12:03:33.695Z,2.75
2022-08-01T12:06:00.452Z,2.80
2022-08-01T12:08:31.189Z,3.35
2022-08-01T12:11:02.084Z,2.88
2022-08-01T12:13:30.108Z,2.97
2022-08-01T12:15:57.142Z,2.58
2022-08-01T12:18:23.396Z,3.00
2022-08-01T12:20:56.726Z,3.10
2022-08-01T12:23:23.768Z,3.33
2022-08-01T12:25:53.397Z,2.58
2022-08-01T12:28:19.801Z,2.58
2022-08-01T12:30:48.234Z,2.90
2022-08-01T12:33:17.765Z,3.25
2022-08-01T12:35:44.036Z,3.25
2022-08-01T12:38:17.813Z,3.08
2022-08-01T12:40:45.849Z,3.42
2022-08-01T12:43:27.381Z,3.30
2022-08-01T12:45:57.433Z,3.15
2022-08-01T12:48:25.091Z,2.95
2022-08-01T12:50:53.095Z,2.60
2022-08-01T12:53:19.806Z,2.90
2022-08-01T12:55:58.564Z,3.00
2022-08-01T12:58:32.231Z,2.70
2022-08-01T13:01:12.131Z,2.80
2022-08-01T13:03:38.887Z,2.38
2022-08-01T13:06:16.191Z,2.33
2022-08-01T13:08:43.116Z,2.25
2022-08-01T13:11:10.790Z,2.28
2022-08-01T13:13:44.333Z,1.98
2022-08-01T13:16:15.439Z,2.10
2022-08-01T13:18:49.646Z,2.30
2022-08-01T13:21:16.793Z,2.00
2022-08-01T13:24:04.234Z,2.08
2022-08-01T13:26:46.974Z,1.80
2022-08-01T13:29:20.224Z,2.15
2022-08-01T13:31:46.635Z,1.70
2022-08-01T13:34:15.264Z,1.60
2022-08-01T13:36:46.992Z,1.70
2022-08-01T13:39:34.380Z,1.40
2022-08-01T13:42:00.614Z,1.60
2022-08-01T13:44:26.896Z,1.38
2022-08-01T13:46:53.161Z,1.65
2022-08-01T13:49:19.549Z,1.40
2022-08-01T13:51:47.299Z,1.52
2022-08-01T13:54:13.688Z,1.75
2022-08-01T13:56:40.007Z,1.75
2022-08-01T13:59:07.393Z,1.77
2022-08-01T14:01:36.012Z,1.75
2022-08-01T14:04:02.965Z,1.75
2022-08-01T14:06:29.583Z,1.65
2022-08-01T14:08:55.848Z,1.75
2022-08-01T14:11:22.124Z,1.58
2022-08-01T14:13:48.403Z,1.50
2022-08-01T14:16:14.901Z,1.67
2022-08-01T14:18:41.718Z,1.70
2022-08-01T14:21:10.599Z,1.55
2022-08-01T14:23:36.908Z,1.58
2022-08-01T14:26:09.678Z,1.42
2022-08-01T14:28:36.747Z,1.38
2022-08-01T14:31:03.050Z,1.27
2022-08-01T14:33:29.840Z,1.50
2022-08-01T14:36:01.588Z,1.50
2022-08-01T14:38:34.242Z,1.40
2022-08-01T14:41:01.505Z,1.13
2022-08-01T14:43:32.739Z,1.40
2022-08-01T14:45:59.726Z,1.50
2022-08-01T14:48:26.205Z,1.30
2022-08-01T14:50:52.564Z,1.48
2022-08-01T14:53:19.119Z,1.38
2022-08-01T14:55:45.387Z,1.50
2022-08-01T14:58:11.651Z,1.60
2022-08-01T15:00:37.994Z,1.30
2022-08-01T15:03:04.389Z,1.60
2022-08-01T15:05:31.560Z,1.70
2022-08-01T15:07:58.181Z,1.45
2022-08-01T15:10:24.498Z,1.73
2022-08-01T15:12:50.970Z,1.45
2022-08-01T15:15:17.268Z,1.60
2022-08-01T15:17:43.568Z,1.55
2022-08-01T15:20:10.023Z,1.60
2022-08-01T15:22:36.320Z,1.60
2022-08-01T15:25:04.173Z,1.55
2022-08-01T15:27:30.621Z,1.30
2022-08-01T15:29:56.961Z,1.50
2022-08-01T15:32:24.529Z,1.50
2022-08-01T15:34:50.867Z,1.33
2022-08-01T15:37:17.211Z,1.55
2022-08-01T15:39:43.561Z,1.73
2022-08-01T15:42:11.576Z,1.60
2022-08-01T15:44:37.947Z,1.95
2022-08-01T15:47:04.808Z,1.52
2022-08-01T15:49:31.510Z,1.63
2022-08-01T15:51:58.160Z,1.70
2022-08-01T15:54:24.673Z,1.58
2022-08-01T15:56:51.154Z,1.80
2022-08-01T15:59:17.486Z,1.40
2022-08-01T16:01:43.966Z,1.40
2022-08-01T16:04:11.754Z,1.27
2022-08-01T16:06:38.130Z,1.77
2022-08-01T16:09:05.010Z,1.60
2022-08-01T16:11:31.677Z,1.30
2022-08-01T16:13:58.174Z,1.60
2022-08-01T16:16:24.443Z,1.83
2022-08-01T16:18:53.665Z,1.63
2022-08-01T16:21:20.400Z,1.67
2022-08-01T16:23:46.670Z,1.65
2022-08-01T16:26:27.191Z,1.50
2022-08-01T16:28:54.622Z,1.80
2022-08-01T16:31:37.915Z,1.75
2022-08-01T16:34:07.150Z,1.65
2022-08-01T16:36:35.866Z,1.48
2022-08-01T16:39:02.119Z,1.60
2022-08-01T16:41:28.368Z,2.28
2022-08-01T16:43:54.895Z,1.55
2022-08-01T16:46:22.263Z,1.60
2022-08-01T16:48:48.584Z,1.75
2022-08-01T16:51:15.429Z,1.50
2022-08-01T16:53:41.760Z,1.30
2022-08-01T16:56:08.032Z,1.40
2022-08-01T16:58:34.289Z,1.67
2022-08-01T17:02:01.252Z,1.92
2022-08-01T17:03:52.966Z,1.60
2022-08-01T17:06:20.572Z,2.03
2022-08-01T17:08:49.798Z,1.65
2022-08-01T17:11:17.456Z,2.20
2022-08-01T17:13:44.015Z,2.03
2022-08-01T17:16:10.623Z,1.90
2022-08-01T17:18:36.937Z,2.10
2022-08-01T17:21:03.481Z,2.00
2022-08-01T17:23:31.628Z,1.88
2022-08-01T17:25:58.171Z,2.03
2022-08-01T17:28:26.020Z,1.60
2022-08-01T17:30:52.267Z,1.60
2022-08-01T17:33:18.621Z,1.73
2022-08-01T17:35:44.871Z,1.58
2022-08-01T17:38:11.238Z,1.52
2022-08-01T17:40:40.411Z,1.50
2022-08-01T17:43:07.290Z,1.27
2022-08-01T17:45:38.166Z,1.75
2022-08-01T17:48:16.869Z,1.40
2022-08-01T17:50:43.875Z,1.40
2022-08-01T17:53:10.250Z,1.80
2022-08-01T17:55:55.860Z,1.45
2022-08-01T17:58:49.197Z,1.67
2022-08-01T18:01:09.093Z,1.38
2022-08-01T18:03:41.458Z,1.45
2022-08-01T18:06:08.467Z,1.33
2022-08-01T18:08:35.099Z,1.40
2022-08-01T18:11:01.363Z,1.60
2022-08-01T18:13:28.703Z,1.27
2022-08-01T18:15:55.662Z,1.35
2022-08-01T18:18:33.587Z,1.17
2022-08-01T18:21:00.634Z,1.60
2022-08-01T18:23:26.886Z,1.20
2022-08-01T18:25:53.827Z,1.40
2022-08-01T18:28:32.312Z,1.55
2022-08-01T18:31:00.769Z,1.40
2022-08-01T18:33:27.129Z,1.30
2022-08-01T18:35:54.045Z,1.40
2022-08-01T18:38:20.801Z,1.55
2022-08-01T18:40:50.461Z,1.50
2022-08-01T18:43:16.782Z,1.33
2022-08-01T18:45:43.319Z,1.40
2022-08-01T18:48:09.815Z,1.45
2022-08-01T18:50:36.124Z,1.20
2022-08-01T18:53:02.430Z,1.30
2022-08-01T18:55:28.712Z,1.55
2022-08-01T18:57:54.992Z,1.20
2022-08-01T19:00:21.552Z,1.52
2022-08-01T19:02:47.814Z,1.40
2022-08-01T19:05:14.123Z,1.75
2022-08-01T19:08:05.970Z,1.45
2022-08-01T19:10:26.619Z,1.52
2022-08-01T19:12:52.924Z,1.42
2022-08-01T19:15:19.233Z,1.42
2022-08-01T19:17:45.810Z,1.65
2022-08-01T19:20:12.068Z,1.40
2022-08-01T19:22:38.389Z,1.65
2022-08-01T19:25:04.837Z,1.50
2022-08-01T19:27:32.839Z,1.50
2022-08-01T19:30:01.145Z,1.40
2022-08-01T19:32:28.467Z,1.50
2022-08-01T19:35:03.124Z,1.63
2022-08-01T19:37:30.575Z,1.40
2022-08-01T19:39:57.443Z,1.83
2022-08-01T19:42:27.788Z,1.95
2022-08-01T19:44:54.445Z,1.60
2022-08-01T19:47:20.861Z,1.50
2022-08-01T19:49:47.435Z,1.40
2022-08-01T19:52:15.342Z,1.60
2022-08-01T19:54:42.585Z,1.90
2022-08-01T19:57:11.647Z,1.75
2022-08-01T19:59:38.298Z,1.70
2022-08-01T20:02:04.972Z,1.40
2022-08-01T20:04:31.351Z,1.40
2022-08-01T20:06:57.632Z,1.50
2022-08-01T20:09:23.978Z,1.60
2022-08-01T20:11:51.655Z,1.55
2022-08-01T20:14:22.144Z,1.40
2022-08-01T20:16:49.033Z,1.60
2022-08-01T20:19:15.780Z,1.58
2022-08-01T20:21:44.629Z,1.90
2022-08-01T20:24:35.113Z,1.67
2022-08-01T20:27:04.904Z,1.85
2022-08-01T20:29:32.358Z,1.40
2022-08-01T20:31:59.584Z,1.77
2022-08-01T20:34:25.875Z,1.92
2022-08-01T20:36:56.459Z,1.80
2022-08-01T20:39:23.118Z,1.80
2022-08-01T20:41:51.013Z,1.85
2022-08-01T20:44:26.937Z,1.73
2022-08-01T20:46:54.136Z,1.83
2022-08-01T20:49:21.381Z,1.73
2022-08-01T20:51:50.551Z,1.60
2022-08-01T20:54:16.817Z,1.50
2022-08-01T20:56:58.079Z,2.00
2022-08-01T20:59:54.826Z,1.67
2022-08-01T21:02:47.819Z,1.67
2022-08-01T21:05:17.631Z,1.80
2022-08-01T21:07:53.553Z,1.70
2022-08-01T21:10:21.060Z,2.00
2022-08-01T21:13:07.600Z,1.52
2022-08-01T21:15:41.657Z,1.77
2022-08-01T21:18:35.240Z,1.65
2022-08-01T21:21:02.399Z,1.52
2022-08-01T21:23:36.081Z,1.60
2022-08-01T21:26:03.469Z,1.90
2022-08-01T21:28:29.746Z,1.95
2022-08-01T21:30:56.664Z,1.90
2022-08-01T21:33:25.355Z,1.70
2022-08-01T21:35:55.395Z,2.08
2022-08-01T21:38:22.409Z,1.92
2022-08-01T21:40:52.717Z,2.25
2022-08-01T21:43:19.573Z,2.03
2022-08-01T21:45:57.892Z,1.40
2022-08-01T21:48:27.005Z,2.10
2022-08-01T21:51:08.503Z,2.03
2022-08-01T21:53:48.922Z,2.25
2022-08-01T21:56:20.615Z,1.70
2022-08-01T21:59:22.497Z,2.00
2022-08-01T22:04:22.550Z,1.80
2022-08-01T22:06:49.298Z,1.98
2022-08-01T22:09:16.665Z,2.03
2022-08-01T22:11:59.339Z,1.83
2022-08-01T22:14:28.719Z,1.92
2022-08-01T22:16:55.159Z,2.40
2022-08-01T22:19:34.110Z,2.22
2022-08-01T22:22:28.955Z,2.10
2022-08-01T22:24:54.001Z,2.05
2022-08-01T22:28:05.487Z,2.55
2022-08-01T22:30:13.737Z,2.30
2022-08-01T22:32:41.220Z,2.50
2022-08-01T22:35:08.958Z,2.47
2022-08-01T22:37:56.587Z,2.30
2022-08-01T22:40:21.836Z,2.28
2022-08-01T22:42:59.387Z,2.47
2022-08-01T22:45:30.416Z,2.58
2022-08-01T22:48:00.032Z,2.60
2022-08-01T22:50:36.438Z,2.50
2022-08-01T22:53:29.403Z,3.00
2022-08-01T22:55:59.214Z,2.50
2022-08-01T22:58:28.920Z,2.50
2022-08-01T23:00:55.947Z,2.50
2022-08-01T23:03:25.333Z,2.40
2022-08-01T23:06:07.086Z,2.58
2022-08-01T23:08:33.482Z,2.10
2022-08-01T23:11:01.081Z,2.25
2022-08-01T23:13:28.201Z,2.80
2022-08-01T23:15:54.842Z,2.42
2022-08-01T23:18:22.139Z,2.05
2022-08-01T23:20:49.697Z,2.70
2022-08-01T23:23:17.066Z,2.40
2022-08-01T23:25:44.155Z,2.20
2022-08-01T23:28:11.477Z,2.25
2022-08-01T23:30:37.817Z,2.83
2022-08-01T23:33:04.279Z,2.38
2022-08-01T23:35:30.882Z,2.50
2022-08-01T23:37:58.538Z,2.50
2022-08-01T23:40:29.575Z,2.80
2022-08-01T23:42:55.944Z,2.63
2022-08-01T23:45:23.144Z,2.75
2022-08-01T23:47:49.641Z,2.30
2022-08-01T23:50:15.907Z,2.65
2022-08-01T23:52:48.447Z,2.45
2022-08-01T23:55:16.492Z,2.30
2022-08-01T23:57:43.015Z,2.90
